Bell Canyon (1243) Station Data

Red Flag Warning: No
Fire Weather Zone: 242
SDGE Region: Orange County
Lat/Lon: 33.558/-117.547

Observations

Time Wind Speed/Gust Temp(F) RH Fuel Moist Fuel Temp(F) Dewpt(F) Tmax(F) Tmin(F) Accum Precip 10-min Precip SL Press(mb)
3/29 8:00am 155 0 G 2 55° 46% - - 35° 56° 41.5° - - 872.0
3/29 7:50am 338 2 G 4 53° 48% - - 34° 54° 41.5° - - 872.0
3/29 7:40am 15 1 G 4 51° 51% - - 34° 52.3° 41.5° - - 873.0
3/29 7:30am 38 2 G 6 49° 54% - - 33° 50.3° 41.5° - - 874.0
3/29 7:20am 12 3 G 5 47° 57% - - 32° 49.6° 41.5° - - 875.0
3/29 7:10am 354 1 G 3 46° 57% - - 32° 49.6° 41.5° - - 875.0
3/29 7:00am 7 2 G 5 47° 56% - - 32° 49.6° 41.5° - - 874.0
3/29 6:50am 37 2 G 4 45° 62% - - 32° 49.6° 41.5° - - 876.0
3/29 6:40am 23 2 G 4 44° 63% - - 32° 49.6° 41.5° - - 877.0
3/29 6:30am 27 2 G 4 44° 64% - - 32° 49.6° 41.5° - - 877.0
3/29 6:20am 40 1 G 4 43° 65% - - 32° 49.6° 41.5° - - 877.0
3/29 6:10am 39 1 G 3 43° 65% - - 32° 49.6° 41.5° - - 877.0
3/29 6:00am 334 1 G 3 42° 66% - - 32° 49.6° 41.5° - - 878.0
3/29 5:50am 86 0 G 2 43° 66% - - 32° 49.6° 41.5° - - 877.0
3/29 5:40am 183 0 G 2 43° 63% - - 32° 49.6° 41.5° - - 877.0
3/29 5:30am 84 1 G 2 43° 64% - - 32° 49.6° 41.5° - - 877.0
3/29 5:20am 267 1 G 3 44° 62% - - 32° 49.6° 41.5° - - 876.0
3/29 5:10am 69 1 G 4 46° 58% - - 32° 49.6° 41.5° - - 875.0
3/29 5:00am 34 3 G 4 45° 59% - - 32° 49.6° 41.5° - - 875.0
3/29 4:50am 38 3 G 4 43° 65% - - 32° 49.6° 41.5° - - 877.0
3/29 4:40am 5 1 G 4 43° 64% - - 32° 49.6° 41.5° - - 877.0
3/29 4:30am 45 1 G 3 43° 65% - - 32° 49.6° 41.5° - - 877.0
3/29 4:20am 330 1 G 2 43° 64% - - 32° 49.6° 41.5° - - 877.0
3/29 4:10am 11 1 G 4 42° 66% - - 32° 49.6° 41.5° - - 878.0
3/29 4:00am 90 0 G 3 42° 65% - - 31° 49.6° 41.5° - - 877.0
3/29 3:50am 3 1 G 3 45° 59% - - 32° 49.6° 42.1° - - 875.0
3/29 3:40am 52 1 G 2 44° 64% - - 32° 49.6° 42.1° - - 877.0
3/29 3:30am 80 1 G 2 43° 66% - - 32° 49.6° 42.1° - - 878.0
3/29 3:20am 314 1 G 3 43° 64% - - 32° 49.6° 42.3° - - 877.0
3/29 3:10am 37 1 G 4 46° 59% - - 32° 49.6° 42.3° - - 875.0
3/29 3:00am 359 2 G 4 44° 63% - - 32° 49.6° 42.3° - - 877.0
3/29 2:50am 38 1 G 4 43° 64% - - 32° 49.6° 42.3° - - 877.0
3/29 2:40am 6 1 G 4 44° 64% - - 32° 49.6° 42.3° - - 877.0
3/29 2:30am 6 0 G 5 44° 63% - - 32° 49.6° 42.3° - - 877.0
3/29 2:20am 84 1 G 3 43° 66% - - 32° 49.6° 42.3° - - 878.0
3/29 2:10am 270 0 G 1 43° 65% - - 32° 49.6° 43.1° - - 877.0
3/29 2:00am 287 1 G 2 44° 61% - - 32° 49.6° 43.4° - - 876.0
3/29 1:50am 101 0 G 2 46° 58% - - 32° 49.6° 44.7° - - 875.0
3/29 1:40am 40 1 G 4 47° 57% - - 32° 49.6° 44.7° - - 875.0
3/29 1:30am 16 2 G 3 47° 57% - - 32° 49.6° 44.7° - - 875.0
3/29 1:20am 66 2 G 4 46° 58% - - 32° 49.6° 44.7° - - 875.0
3/29 1:10am 80 0 G 2 46° 58% - - 32° 49.6° 45.4° - - 875.0
3/29 1:00am 86 0 G 2 47° 56% - - 32° 49.6° 45.5° - - 875.0
3/29 12:50am 43 1 G 3 48° 54% - - 32° 49.6° 45.5° - - 874.0
3/29 12:40am 36 1 G 3 49° 53% - - 32° 49.6° 45.5° - - 874.0
3/29 12:30am 57 1 G 4 48° 54% - - 33° 49.5° 45.5° - - 874.0
3/29 12:20am 42 1 G 2 48° 56% - - 33° 48.9° 45.5° - - 875.0
3/29 12:10am 36 1 G 3 46° 60% - - 33° 47.7° 45.5° - - 876.0
3/29 12:00am 274 0 G 1 47° 58% - - 33° 75° 41.6° - - 875.0
3/28 11:50pm 55 0 G 2 50° 52% - - 33° 75° 41.6° - - 874.0
3/28 11:40pm 37 1 G 2 51° 50% - - 33° 75° 41.6° - - 873.0
3/28 11:30pm 20 1 G 3 52° 49% - - 33° 75° 41.6° - - 873.0
3/28 11:20pm 13 2 G 4 52° 49% - - 34° 75° 41.6° - - 873.0
3/28 11:10pm 78 1 G 2 51° 51% - - 34° 75° 41.6° - - 874.0
3/28 11:00pm 19 1 G 4 52° 49% - - 34° 75° 41.6° - - 873.0
3/28 10:50pm 50 2 G 4 52° 50% - - 34° 75° 41.6° - - 874.0
3/28 10:40pm 33 1 G 3 52° 50% - - 34° 75° 41.6° - - 874.0
3/28 10:30pm 21 1 G 3 53° 50% - - 35° 75° 41.6° - - 874.0
3/28 10:20pm 30 1 G 2 53° 50% - - 35° 75° 41.6° - - 874.0
3/28 10:10pm 51 1 G 3 53° 50% - - 35° 75° 41.6° - - 874.0
3/28 10:00pm 12 1 G 3 54° 48% - - 35° 75° 41.6° - - 873.0
3/28 9:50pm 2 2 G 4 54° 47% - - 35° 75° 41.6° - - 873.0
3/28 9:40pm 21 2 G 3 54° 49% - - 35° 75° 41.6° - - 874.0
3/28 9:30pm 21 2 G 4 54° 49% - - 35° 75° 41.6° - - 874.0
3/28 9:20pm 17 2 G 3 54° 49% - - 35° 75° 41.6° - - 874.0
3/28 9:10pm 6 2 G 4 54° 49% - - 36° 75° 41.6° - - 874.0
3/28 9:00pm 2 3 G 5 55° 48% - - 36° 75° 41.6° - - 874.0
3/28 8:50pm 1 2 G 5 55° 47% - - 36° 75° 41.6° - - 874.0
3/28 8:40pm 4 3 G 5 55° 49% - - 36° 75° 41.6° - - 875.0
3/28 8:30pm 359 2 G 4 55° 50% - - 37° 75° 41.6° - - 875.0
3/28 8:20pm 15 3 G 4 55° 49% - - 37° 75° 41.6° - - 875.0
3/28 8:10pm 11 2 G 4 57° 47% - - 37° 75° 41.6° - - 874.0
3/28 8:00pm 22 1 G 4 58° 45% - - 37° 75° 41.6° - - 874.0
3/28 7:50pm 20 2 G 3 58° 45% - - 37° 75° 41.6° - - 874.0
3/28 7:40pm 59 3 G 7 59° 42% - - 36° 75° 41.6° - - 874.0
3/28 7:30pm 68 2 G 5 61° 37% - - 35° 75° 41.6° - - 872.0
3/28 7:20pm 58 1 G 3 63° 34% - - 34° 75° 41.6° - - 872.0
3/28 7:10pm 94 1 G 2 65° 31% - - 33° 75° 41.6° - - 871.0
3/28 7:00pm 206 0 G 1 67° 25% - - 31° 75° 41.6° - - 870.0
3/28 6:50pm 225 0 G 2 68° 24% - - 31° 75° 41.6° - - 870.0
3/28 6:40pm 258 1 G 5 70° 22% - - 29° 75° 41.6° - - 870.0
3/28 6:30pm 244 3 G 7 70° 22% - - 29° 75° 41.6° - - 870.0
3/28 6:20pm 251 3 G 6 71° 21% - - 30° 75° 41.6° - - 870.0
3/28 6:10pm 250 3 G 6 72° 21% - - 29° 75° 41.6° - - 871.0
3/28 6:00pm 246 4 G 8 72° 21% - - 30° 75° 41.6° - - 871.0
3/28 5:50pm 244 4 G 8 72° 22% - - 31° 75° 41.6° - - 872.0
3/28 5:40pm 256 4 G 7 73° 23% - - 33° 75° 41.6° - - 872.0
3/28 5:30pm 252 3 G 7 74° 22% - - 33° 75° 41.6° - - 872.0
3/28 5:20pm 272 3 G 8 74° 22% - - 33° 75° 41.6° - - 872.0
3/28 5:10pm 274 4 G 9 74° 22% - - 33° 75° 41.6° - - 872.0
3/28 5:00pm 282 3 G 6 75° 22% - - 33° 75° 41.6° - - 872.0
3/28 4:50pm 283 2 G 8 74° 23% - - 34° 74.8° 41.6° - - 872.0
3/28 4:40pm 253 4 G 8 74° 24% - - 34° 74.4° 41.6° - - 872.0
3/28 4:30pm 255 5 G 10 73° 23% - - 33° 74.4° 41.6° - - 872.0
3/28 4:20pm 271 5 G 10 73° 24% - - 34° 74.4° 41.6° - - 873.0
3/28 4:10pm 236 4 G 8 74° 25% - - 36° 74.4° 41.6° - - 873.0
3/28 4:00pm 237 3 G 8 73° 25% - - 36° 74° 41.6° - - 873.0
3/28 3:50pm 206 3 G 9 73° 27% - - 37° 74° 41.6° - - 874.0
3/28 3:40pm 233 4 G 9 73° 28% - - 38° 73.9° 41.6° - - 874.0
3/28 3:30pm 216 4 G 11 72° 30% - - 39° 73.9° 41.6° - - 874.0
3/28 3:20pm 218 4 G 11 72° 31% - - 39° 73.9° 41.6° - - 874.0
3/28 3:10pm 219 5 G 13 73° 31% - - 41° 73.9° 41.6° - - 875.0
3/28 3:00pm 244 5 G 10 73° 32% - - 41° 73.7° 41.6° - - 875.0
3/28 2:50pm 252 5 G 11 73° 33% - - 42° 73.7° 41.6° - - 875.0
3/28 2:40pm 236 4 G 9 73° 34% - - 43° 73.7° 41.6° - - 876.0
3/28 2:30pm 262 5 G 8 72° 37% - - 45° 73.7° 41.6° - - 876.0
3/28 2:20pm 222 4 G 11 72° 39% - - 46° 73.7° 41.6° - - 877.0
3/28 2:10pm 234 5 G 11 72° 38% - - 45° 73.7° 41.6° - - 876.0
3/28 2:00pm 221 4 G 10 73° 36% - - 44° 73.7° 41.6° - - 876.0
3/28 1:50pm 240 4 G 8 72° 37% - - 45° 73.7° 41.6° - - 876.0
3/28 1:40pm 257 5 G 9 72° 40% - - 46° 73.7° 41.6° - - 877.0
3/28 1:30pm 251 4 G 10 71° 40% - - 45° 73.7° 41.6° - - 877.0
3/28 1:20pm 248 5 G 10 70° 43% - - 47° 73.7° 41.6° - - 878.0
3/28 1:10pm 248 5 G 10 71° 47% - - 49° 73.7° 41.6° - - 879.0
3/28 1:00pm 228 4 G 10 71° 47% - - 50° 73.7° 41.6° - - 880.0
3/28 12:50pm 208 3 G 10 71° 46% - - 50° 73.7° 41.6° - - 879.0
3/28 12:40pm 255 5 G 9 71° 47% - - 50° 73.7° 41.6° - - 879.0
3/28 12:30pm 231 4 G 9 72° 44% - - 49° 73.7° 41.6° - - 879.0
3/28 12:20pm 229 4 G 11 71° 43% - - 48° 73.7° 41.6° - - 878.0
3/28 12:10pm 225 4 G 12 71° 41% - - 47° 73.7° 41.6° - - 878.0
3/28 12:00pm 182 3 G 12 72° 42% - - 48° 73.7° 41.6° - - 878.0
3/28 11:50am 213 3 G 9 73° 31% - - 40° 73.7° 41.6° - - 873.0
3/28 11:40am 263 4 G 8 72° 31% - - 40° 73° 41.6° - - 873.0
3/28 11:30am 243 3 G 7 71° 37% - - 43° 71.5° 41.6° - - 875.0
3/28 11:20am 266 4 G 8 70° 39% - - 44° 70.3° 41.6° - - 876.0
3/28 11:10am 256 3 G 7 69° 39% - - 44° 69.9° 41.6° - - 876.0
3/28 11:00am 204 2 G 7 69° 40% - - 43° 69.3° 41.6° - - 876.0
3/28 10:50am 190 2 G 6 68° 46% - - 46° 69.3° 41.6° - - 878.0
3/28 10:40am 145 2 G 5 67° 49% - - 48° 67.6° 41.6° - - 879.0
3/28 10:30am 146 2 G 8 67° 53% - - 49° 67.3° 41.6° - - 880.0
3/28 10:20am 149 3 G 8 65° 56% - - 49° 66.2° 41.6° - - 880.0
3/28 10:10am 163 1 G 5 64° 58% - - 49° 65° 41.6° - - 881.0
3/28 10:00am 158 2 G 7 64° 59% - - 49° 64.1° 41.6° - - 881.0
3/28 9:50am 145 1 G 7 63° 60% - - 49° 63.9° 41.6° - - 881.0
3/28 9:40am 165 1 G 4 63° 60% - - 49° 63.3° 41.6° - - 881.0
3/28 9:30am 159 1 G 4 62° 60% - - 48° 62.6° 41.6° - - 880.0
3/28 9:20am 185 2 G 5 60° 62% - - 47° 60.6° 41.6° - - 881.0
3/28 9:10am 201 1 G 3 59° 66% - - 48° 59.5° 41.6° - - 882.0
3/28 9:00am 207 1 G 4 58° 69% - - 48° 58.3° 41.6° - - 883.0
3/28 8:50am 227 2 G 4 57° 72% - - 48° 57.7° 41.6° - - 884.0
3/28 8:40am 178 1 G 2 57° 73% - - 48° 57.7° 41.6° - - 884.0
3/28 8:30am 109 2 G 3 55° 76% - - 48° 56.5° 41.6° - - 885.0
3/28 8:20am 341 1 G 4 54° 81% - - 48° 55° 41.6° - - 887.0
3/28 8:10am 56 1 G 3 51° 86% - - 47° 52.5° 41.6° - - 888.0
3/28 8:00am 334 1 G 3 48° 87% - - 45° 49.8° 41.6° - - 888.0
3/28 7:50am 311 1 G 4 48° 91% - - 45° 49.8° 41.6° - - 889.0
3/28 7:40am 74 2 G 4 46° 94% - - 44° 49.8° 41.6° - - 890.0
3/28 7:30am 343 3 G 5 44° 92% - - 41° 49.8° 41.6° - - 889.0
3/28 7:20am 253 1 G 4 43° 90% - - 40° 49.8° 41.6° - - 888.0
3/28 7:10am 79 1 G 3 43° 89% - - 40° 49.8° 41.6° - - 887.0
3/28 7:00am 25 1 G 4 44° 89% - - 41° 49.8° 41.6° - - 888.0
3/28 6:50am 7 2 G 5 44° 89% - - 41° 49.8° 41.6° - - 888.0
3/28 6:40am 66 1 G 3 44° 88% - - 41° 49.8° 41.6° - - 887.0
3/28 6:30am 1 1 G 3 45° 88% - - 42° 49.8° 41.6° - - 887.0
3/28 6:20am 10 3 G 5 45° 90% - - 43° 49.8° 41.6° - - 888.0
3/28 6:10am 9 3 G 6 44° 88% - - 41° 49.8° 41.6° - - 887.0
3/28 6:00am 53 2 G 7 44° 88% - - 41° 49.8° 41.6° - - 887.0